Time;durP1;ratioP1;P1;durP2;ratioP2;P2;SDS_P1;SDS_P2;PMS_P1;PMS_P2;Temp;Humidity;BMP_temperature;BMP_pressure;BME280_temperature;BME280_humidity;BME280_pressure;Samples;Min_cycle;Max_cycle;Signal;HPM_P1;HPM_P2
2024/01/25 00:02:23;;;;;;;8.10;1.30;;;;;;;6.85;78.30;100049.67;130012;1259;114620;-66
2024/01/25 00:05:44;;;;;;;7.20;1.50;;;;;;;6.87;78.32;100052.95;129867;1277;114837;-64
2024/01/25 00:08:49;;;;;;;5.80;1.40;;;;;;;6.89;78.51;100052.86;129907;1261;114824;-64
2024/01/25 00:11:52;;;;;;;8.50;2.00;;;;;;;6.90;78.44;100057.45;130058;1269;114627;-66
2024/01/25 00:14:56;;;;;;;8.10;1.30;;;;;;;6.91;78.45;100060.63;129892;1271;115160;-62
2024/01/25 00:17:58;;;;;;;6.90;2.20;;;;;;;6.89;78.68;100063.70;129745;1260;114817;-65
2024/01/25 00:21:00;;;;;;;8.30;1.80;;;;;;;6.88;78.51;100064.83;130099;1254;114980;-64
2024/01/25 00:24:03;;;;;;;10.20;1.70;;;;;;;6.86;78.53;100070.04;129702;1265;115175;-62
2024/01/25 00:27:07;;;;;;;8.10;1.20;;;;;;;6.82;78.60;100065.04;130038;1277;114798;-65
2024/01/25 00:30:10;;;;;;;7.30;1.90;;;;;;;6.76;78.40;100075.76;129832;1259;115132;-64
2024/01/25 00:33:12;;;;;;;6.30;1.60;;;;;;;6.68;78.33;100070.70;130341;1267;114801;-62
2024/01/25 00:36:18;;;;;;;8.10;1.30;;;;;;;6.62;78.31;100078.20;130343;1277;114706;-66
2024/01/25 00:39:38;;;;;;;13.60;1.60;;;;;;;6.56;78.43;100081.80;130120;1277;114654;-67
2024/01/25 00:42:52;;;;;;;9.00;1.80;;;;;;;6.53;78.52;100082.77;130077;1259;114834;-64
2024/01/25 00:45:55;;;;;;;7.30;2.10;;;;;;;6.55;78.66;100086.79;129874;1278;114734;-64
2024/01/25 00:48:57;;;;;;;4.30;1.30;;;;;;;6.59;78.61;100082.40;129684;1259;114974;-63
2024/01/25 00:52:00;;;;;;;7.30;1.50;;;;;;;6.62;78.67;100095.06;129870;1259;114808;-62
2024/01/25 00:55:02;;;;;;;9.40;1.70;;;;;;;6.66;78.41;100093.50;129828;1267;128972;-64
2024/01/25 00:58:05;;;;;;;9.30;1.60;;;;;;;6.69;78.48;100096.39;129943;1259;115494;-63
2024/01/25 01:01:09;;;;;;;9.20;1.60;;;;;;;6.73;78.46;100088.80;129752;1262;114702;-64
2024/01/25 01:04:12;;;;;;;18.20;2.00;;;;;;;6.77;78.57;100095.77;129813;1259;114729;-63
2024/01/25 01:07:14;;;;;;;7.30;2.20;;;;;;;6.80;78.09;100100.26;129985;1275;114813;-63
2024/01/25 01:10:16;;;;;;;12.20;2.50;;;;;;;6.83;78.29;100102.28;129782;1256;115254;-64
2024/01/25 01:13:19;;;;;;;5.80;1.30;;;;;;;6.84;77.87;100098.33;130107;1259;114674;-64
2024/01/25 01:16:23;;;;;;;7.80;1.30;;;;;;;6.86;77.65;100102.91;129766;1277;114737;-63
2024/01/25 01:19:25;;;;;;;5.70;1.40;;;;;;;6.88;77.68;100109.91;130081;1259;114746;-63
2024/01/25 01:22:27;;;;;;;6.80;1.70;;;;;;;6.89;77.24;100113.42;129965;1259;114858;-64
2024/01/25 01:25:32;;;;;;;7.90;1.60;;;;;;;6.90;77.04;100114.98;130049;1258;114804;-64
2024/01/25 01:28:43;;;;;;;8.00;1.50;;;;;;;6.91;77.02;100119.02;130029;1263;114783;-63
2024/01/25 01:31:45;;;;;;;6.00;1.10;;;;;;;6.92;76.91;100121.12;129894;1260;114772;-63
2024/01/25 01:34:47;;;;;;;7.90;2.10;;;;;;;6.94;76.95;100124.60;130008;1254;114785;-64
2024/01/25 01:37:49;;;;;;;11.70;1.70;;;;;;;6.95;76.82;100130.61;129995;1257;114715;-64
2024/01/25 01:40:54;;;;;;;9.50;1.60;;;;;;;6.95;76.52;100137.48;130102;1260;115186;-64
2024/01/25 01:43:56;;;;;;;7.80;1.70;;;;;;;6.96;76.56;100131.80;130002;1259;114680;-64
2024/01/25 01:46:58;;;;;;;8.30;1.50;;;;;;;6.97;76.49;100133.16;129564;1262;114795;-62
2024/01/25 01:50:00;;;;;;;8.40;1.80;;;;;;;6.99;76.50;100133.29;129599;1271;114641;-62
2024/01/25 01:53:03;;;;;;;9.40;1.70;;;;;;;7.01;76.41;100135.54;129592;1260;128401;-61
2024/01/25 01:56:06;;;;;;;9.30;1.70;;;;;;;7.02;76.35;100138.34;129752;1262;115309;-62
2024/01/25 01:59:10;;;;;;;5.70;1.20;;;;;;;7.02;75.90;100146.67;133649;1261;114729;-64
2024/01/25 02:02:12;;;;;;;11.00;2.00;;;;;;;7.04;75.90;100137.01;129570;1262;115270;-64
2024/01/25 02:05:14;;;;;;;7.00;1.50;;;;;;;7.06;75.97;100144.57;129844;1258;114881;-62
2024/01/25 02:08:16;;;;;;;8.40;2.00;;;;;;;7.08;75.45;100142.38;129792;1272;115175;-64
2024/01/25 02:11:22;;;;;;;6.80;1.50;;;;;;;7.09;75.36;100138.26;129293;1280;128644;-63
2024/01/25 02:14:24;;;;;;;8.50;1.50;;;;;;;7.09;75.29;100137.35;129775;1280;114721;-64
2024/01/25 02:17:26;;;;;;;14.20;2.30;;;;;;;7.08;75.07;100134.00;129752;1270;114786;-63
2024/01/25 02:20:36;;;;;;;7.70;1.40;;;;;;;7.08;74.96;100138.27;130049;1260;114829;-66
2024/01/25 02:23:39;;;;;;;12.00;2.00;;;;;;;7.09;74.84;100133.98;129827;1278;114811;-64
2024/01/25 02:26:41;;;;;;;6.80;1.60;;;;;;;7.10;75.03;100136.09;130206;1278;114743;-64
2024/01/25 02:29:50;;;;;;;12.60;1.90;;;;;;;7.09;74.36;100133.61;130140;1275;114771;-66
2024/01/25 02:32:56;;;;;;;8.80;2.30;;;;;;;7.10;74.35;100133.40;130145;1259;114759;-65
2024/01/25 02:36:05;;;;;;;7.10;1.10;;;;;;;7.10;74.24;100133.77;130253;1263;114788;-65
2024/01/25 02:39:13;;;;;;;10.30;1.70;;;;;;;7.07;74.06;100122.52;130193;1260;115298;-64
2024/01/25 02:42:30;;;;;;;9.40;2.60;;;;;;;7.10;74.06;100133.42;130257;1262;129241;-66
2024/01/25 02:45:49;;;;;;;7.00;1.50;;;;;;;7.09;73.91;100132.38;129939;1274;114807;-65
2024/01/25 02:48:58;;;;;;;6.20;1.40;;;;;;;7.09;73.80;100127.42;130297;1260;114660;-65
2024/01/25 02:52:01;;;;;;;7.40;1.70;;;;;;;7.08;73.69;100124.24;130290;1265;114804;-66
2024/01/25 02:55:21;;;;;;;8.90;2.00;;;;;;;7.08;73.59;100120.35;129825;1256;116360;-64
2024/01/25 02:58:30;;;;;;;11.50;1.40;;;;;;;7.08;73.67;100125.50;129986;1259;128636;-66
2024/01/25 03:01:49;;;;;;;6.10;1.50;;;;;;;7.07;73.78;100124.45;130175;1259;114801;-64
2024/01/25 03:04:52;;;;;;;9.30;1.70;;;;;;;7.07;73.74;100131.73;129706;1272;114799;-62
2024/01/25 03:07:54;;;;;;;9.50;1.90;;;;;;;7.07;73.57;100132.10;130083;1277;114776;-63
2024/01/25 03:10:57;;;;;;;8.50;1.90;;;;;;;7.06;73.62;100140.47;129946;1268;115318;-63
2024/01/25 03:13:59;;;;;;;9.70;1.60;;;;;;;7.05;73.54;100135.19;129894;1270;114798;-63
2024/01/25 03:17:01;;;;;;;11.00;1.60;;;;;;;7.05;73.46;100140.34;129968;1268;129027;-64
2024/01/25 03:20:05;;;;;;;7.90;1.10;;;;;;;7.04;73.48;100141.96;129925;1277;114686;-63
2024/01/25 03:23:08;;;;;;;10.10;1.60;;;;;;;7.04;73.38;100146.97;129993;1267;114725;-64
2024/01/25 03:26:10;;;;;;;13.70;1.60;;;;;;;7.03;73.52;100141.13;130007;1268;114686;-63
2024/01/25 03:29:12;;;;;;;10.80;1.60;;;;;;;7.03;73.63;100142.01;130054;1277;114836;-64
2024/01/25 03:32:14;;;;;;;6.80;1.80;;;;;;;7.03;73.53;100145.05;129712;1267;116418;-64
2024/01/25 03:35:17;;;;;;;10.20;1.80;;;;;;;7.03;73.32;100145.58;129896;1254;114741;-63
2024/01/25 03:38:19;;;;;;;11.30;2.10;;;;;;;7.03;73.22;100145.39;129991;1259;116085;-62
2024/01/25 03:41:23;;;;;;;12.40;1.60;;;;;;;7.04;73.35;100139.48;130090;1277;114837;-63
2024/01/25 03:44:25;;;;;;;9.30;2.70;;;;;;;7.05;73.32;100143.20;129719;1260;115242;-63
2024/01/25 03:47:27;;;;;;;6.30;1.20;;;;;;;7.05;73.11;100147.27;129951;1260;114769;-63
2024/01/25 03:50:29;;;;;;;10.50;1.50;;;;;;;7.06;73.10;100138.88;130089;1257;114722;-64
2024/01/25 03:53:31;;;;;;;6.80;1.10;;;;;;;7.07;72.98;100131.76;129562;1260;114821;-63
2024/01/25 03:56:33;;;;;;;8.00;1.80;;;;;;;7.06;72.92;100133.55;130006;1261;114719;-63
2024/01/25 03:59:35;;;;;;;10.90;2.00;;;;;;;7.07;73.05;100142.91;129970;1268;114702;-64
2024/01/25 04:02:37;;;;;;;9.70;1.90;;;;;;;7.08;72.92;100131.89;129690;1260;114927;-63
2024/01/25 04:05:39;;;;;;;10.00;1.70;;;;;;;7.09;72.84;100126.70;130121;1258;114702;-63
2024/01/25 04:08:41;;;;;;;11.40;1.70;;;;;;;7.10;72.85;100130.23;130043;1258;115189;-64
2024/01/25 04:11:43;;;;;;;7.20;1.30;;;;;;;7.11;72.73;100126.99;129744;1258;114810;-64
2024/01/25 04:14:46;;;;;;;8.60;1.50;;;;;;;7.10;72.82;100128.95;130025;1267;114711;-64
2024/01/25 04:17:47;;;;;;;7.00;1.50;;;;;;;7.10;72.76;100127.56;130077;1277;114687;-64
2024/01/25 04:20:50;;;;;;;5.40;0.90;;;;;;;7.09;72.47;100117.63;129666;1277;128334;-65
2024/01/25 04:23:53;;;;;;;8.70;1.50;;;;;;;7.09;72.37;100118.36;130153;1259;114799;-63
2024/01/25 04:26:54;;;;;;;5.90;1.20;;;;;;;7.10;72.25;100125.95;130031;1258;114710;-64
2024/01/25 04:29:57;;;;;;;11.00;1.30;;;;;;;7.09;72.68;100125.27;129864;1267;115337;-63
2024/01/25 04:32:59;;;;;;;4.20;1.10;;;;;;;7.09;72.74;100124.02;129916;1254;114716;-65
2024/01/25 04:36:01;;;;;;;5.80;1.70;;;;;;;7.06;72.92;100123.25;129897;1260;114754;-62
2024/01/25 04:39:04;;;;;;;6.20;1.40;;;;;;;7.01;73.19;100128.44;129918;1259;114702;-62
2024/01/25 04:42:06;;;;;;;7.00;1.50;;;;;;;6.95;73.34;100118.89;129578;1265;128605;-62
2024/01/25 04:45:08;;;;;;;8.20;1.60;;;;;;;6.89;73.64;100115.71;129995;1257;114746;-63
2024/01/25 04:48:10;;;;;;;6.30;1.40;;;;;;;6.85;73.52;100123.15;130092;1260;114769;-63
2024/01/25 04:51:16;;;;;;;7.20;1.30;;;;;;;6.81;74.07;100126.83;129513;1261;114872;-63
2024/01/25 04:54:18;;;;;;;11.10;1.80;;;;;;;6.77;73.96;100121.50;129989;1267;114711;-63
2024/01/25 04:57:20;;;;;;;9.10;1.80;;;;;;;6.74;74.09;100128.73;129899;1260;114654;-63
2024/01/25 05:00:22;;;;;;;8.80;2.00;;;;;;;6.71;74.26;100131.84;129933;1273;114959;-63
2024/01/25 05:03:25;;;;;;;9.80;2.10;;;;;;;6.69;74.40;100132.27;129581;1277;128419;-64
2024/01/25 05:06:29;;;;;;;9.20;2.20;;;;;;;6.68;74.41;100124.14;129712;1260;114895;-64
2024/01/25 05:09:31;;;;;;;4.60;1.40;;;;;;;6.68;74.55;100128.21;130052;1259;114696;-65
2024/01/25 05:12:34;;;;;;;10.00;1.50;;;;;;;6.68;74.38;100124.83;130125;1260;114717;-64
2024/01/25 05:15:36;;;;;;;7.70;1.50;;;;;;;6.69;74.37;100126.57;129785;1266;114808;-64
2024/01/25 05:18:41;;;;;;;7.50;1.90;;;;;;;6.71;74.50;100132.35;129600;1273;115074;-65
2024/01/25 05:21:48;;;;;;;8.20;1.30;;;;;;;6.72;74.44;100137.64;130042;1277;114724;-65
2024/01/25 05:24:59;;;;;;;5.40;1.00;;;;;;;6.75;74.78;100135.60;129715;1261;114793;-64
2024/01/25 05:28:02;;;;;;;8.00;2.30;;;;;;;6.76;74.55;100133.25;130166;1267;115222;-65
2024/01/25 05:31:12;;;;;;;9.50;1.80;;;;;;;6.77;74.47;100132.84;130229;1269;114685;-64
2024/01/25 05:34:14;;;;;;;10.90;1.80;;;;;;;6.79;74.52;100130.10;130105;1263;114718;-63
2024/01/25 05:37:16;;;;;;;8.80;1.70;;;;;;;6.80;74.27;100131.11;130054;1259;114723;-64
2024/01/25 05:40:18;;;;;;;6.40;1.80;;;;;;;6.82;74.43;100127.52;130110;1261;114683;-64
2024/01/25 05:43:20;;;;;;;8.60;1.30;;;;;;;6.83;74.26;100133.88;129775;1268;115311;-65
2024/01/25 05:46:22;;;;;;;8.00;1.40;;;;;;;6.83;74.16;100143.98;129884;1267;114709;-64
2024/01/25 05:49:24;;;;;;;7.40;1.70;;;;;;;6.83;73.91;100147.00;129934;1263;114788;-64
2024/01/25 05:52:26;;;;;;;9.10;1.60;;;;;;;6.85;73.97;100151.73;129961;1270;114681;-64
2024/01/25 05:55:28;;;;;;;7.80;1.30;;;;;;;6.86;74.04;100151.00;130062;1258;115331;-64
2024/01/25 05:58:30;;;;;;;7.50;1.10;;;;;;;6.86;73.67;100150.98;129917;1254;115639;-64
2024/01/25 06:01:32;;;;;;;6.30;1.10;;;;;;;6.87;73.82;100157.19;129513;1277;128471;-64
2024/01/25 06:04:34;;;;;;;7.50;1.60;;;;;;;6.88;73.80;100156.62;129930;1272;114799;-65
2024/01/25 06:07:36;;;;;;;9.60;1.80;;;;;;;6.88;73.91;100166.00;130049;1275;115104;-65
2024/01/25 06:10:39;;;;;;;9.00;2.30;;;;;;;6.89;74.00;100161.52;130006;1260;114911;-65
2024/01/25 06:13:42;;;;;;;7.00;1.80;;;;;;;6.90;74.09;100173.93;129958;1258;115223;-64
2024/01/25 06:16:44;;;;;;;9.60;2.00;;;;;;;6.90;74.01;100171.08;129991;1260;115302;-63
2024/01/25 06:19:46;;;;;;;8.90;2.00;;;;;;;6.89;74.15;100174.30;130052;1260;114718;-63
2024/01/25 06:22:48;;;;;;;10.70;2.40;;;;;;;6.87;74.33;100184.52;130124;1258;114801;-63
2024/01/25 06:25:51;;;;;;;12.40;2.70;;;;;;;6.86;74.64;100185.44;129769;1271;114981;-63
2024/01/25 06:28:52;;;;;;;7.00;1.60;;;;;;;6.85;74.56;100187.23;130038;1271;115480;-64
2024/01/25 06:31:54;;;;;;;8.60;1.70;;;;;;;6.83;74.93;100188.37;129985;1260;114738;-63
2024/01/25 06:34:56;;;;;;;12.80;2.40;;;;;;;6.82;74.92;100194.98;129860;1277;116285;-63
2024/01/25 06:37:59;;;;;;;13.90;2.30;;;;;;;6.80;74.91;100190.60;129856;1260;115478;-62
2024/01/25 06:41:00;;;;;;;7.40;1.90;;;;;;;6.78;74.57;100195.64;130054;1260;115685;-63
2024/01/25 06:44:02;;;;;;;8.50;1.50;;;;;;;6.77;74.72;100207.40;129902;1277;129859;-63
2024/01/25 06:47:05;;;;;;;5.50;1.10;;;;;;;6.76;74.95;100204.24;129818;1267;114777;-63
2024/01/25 06:50:09;;;;;;;7.80;2.00;;;;;;;6.76;74.60;100205.85;129961;1257;115088;-63
2024/01/25 06:53:11;;;;;;;12.50;1.70;;;;;;;6.75;74.56;100206.05;129984;1254;114789;-63
2024/01/25 06:56:13;;;;;;;14.60;2.50;;;;;;;6.76;74.43;100205.67;130014;1263;115316;-63
2024/01/25 06:59:15;;;;;;;9.60;1.60;;;;;;;6.76;74.60;100206.19;129509;1267;114981;-63
2024/01/25 07:02:17;;;;;;;8.10;1.90;;;;;;;6.77;74.42;100205.79;129813;1277;115163;-63
2024/01/25 07:05:19;;;;;;;9.00;2.70;;;;;;;6.78;74.53;100207.17;130193;1277;114762;-62
2024/01/25 07:08:23;;;;;;;14.30;2.30;;;;;;;6.80;74.33;100206.94;130191;1276;114795;-62
2024/01/25 07:11:25;;;;;;;10.80;1.70;;;;;;;6.80;74.44;100201.79;129982;1257;115406;-62
2024/01/25 07:14:29;;;;;;;9.80;1.80;;;;;;;6.81;74.15;100205.65;129935;1258;114788;-63
2024/01/25 07:17:31;;;;;;;9.30;2.00;;;;;;;6.81;73.95;100213.10;129917;1260;115672;-63
2024/01/25 07:20:33;;;;;;;8.20;1.20;;;;;;;6.83;74.01;100224.21;129762;1260;115611;-63
2024/01/25 07:23:35;;;;;;;4.60;1.40;;;;;;;6.86;73.46;100220.23;129844;1261;130045;-63
2024/01/25 07:26:37;;;;;;;7.00;1.20;;;;;;;6.89;73.42;100223.84;129969;1267;114715;-63
2024/01/25 07:29:40;;;;;;;10.30;2.40;;;;;;;6.92;73.38;100233.48;129941;1257;114791;-63
2024/01/25 07:32:42;;;;;;;12.60;1.80;;;;;;;6.95;72.87;100239.11;129692;1262;114843;-63
2024/01/25 07:35:47;;;;;;;7.30;2.00;;;;;;;6.97;73.01;100246.10;129972;1259;114871;-63
2024/01/25 07:38:50;;;;;;;13.10;3.20;;;;;;;7.00;72.88;100253.80;129933;1257;114720;-62
2024/01/25 07:41:52;;;;;;;11.80;1.80;;;;;;;7.03;72.53;100264.91;129951;1254;115141;-63
2024/01/25 07:44:54;;;;;;;12.90;1.90;;;;;;;7.04;72.43;100269.48;129896;1255;114736;-63
2024/01/25 07:47:57;;;;;;;20.30;6.00;;;;;;;7.06;72.43;100273.67;129936;1257;115403;-63
2024/01/25 07:50:59;;;;;;;12.60;3.60;;;;;;;7.09;72.48;100278.35;129510;1260;114782;-63
2024/01/25 07:54:02;;;;;;;16.00;6.10;;;;;;;7.10;72.00;100273.16;129995;1257;115390;-63
2024/01/25 07:57:04;;;;;;;13.30;4.80;;;;;;;7.14;72.18;100285.98;129948;1258;114776;-63
2024/01/25 08:00:08;;;;;;;9.00;3.30;;;;;;;7.18;71.91;100286.05;129979;1254;114724;-63
2024/01/25 08:03:10;;;;;;;10.30;3.30;;;;;;;7.20;71.90;100293.98;129734;1277;128076;-65
2024/01/25 08:06:13;;;;;;;6.20;2.00;;;;;;;7.22;71.81;100288.71;129845;1277;114702;-63
2024/01/25 08:09:15;;;;;;;7.90;2.20;;;;;;;7.24;71.56;100296.13;129980;1254;114757;-63
2024/01/25 08:12:17;;;;;;;11.00;2.10;;;;;;;7.27;71.38;100307.23;129950;1257;114770;-63
2024/01/25 08:15:19;;;;;;;9.60;2.40;;;;;;;7.29;71.37;100312.10;129735;1260;115006;-64
2024/01/25 08:18:22;;;;;;;9.70;1.90;;;;;;;7.30;71.27;100312.59;129890;1257;114650;-63
2024/01/25 08:21:24;;;;;;;8.10;1.90;;;;;;;7.32;70.99;100321.23;129924;1258;115342;-63
2024/01/25 08:24:27;;;;;;;8.50;1.70;;;;;;;7.32;71.19;100320.00;129932;1257;116082;-62
2024/01/25 08:27:29;;;;;;;9.60;1.90;;;;;;;7.32;70.90;100319.11;130018;1258;114749;-63
2024/01/25 08:30:31;;;;;;;9.80;1.80;;;;;;;7.34;70.80;100323.48;129914;1257;114757;-63
2024/01/25 08:33:33;;;;;;;11.20;2.00;;;;;;;7.37;71.06;100322.13;130054;1267;114708;-63
2024/01/25 08:36:35;;;;;;;10.20;2.50;;;;;;;7.43;71.07;100318.20;129570;1277;114681;-63
2024/01/25 08:39:37;;;;;;;7.80;1.60;;;;;;;7.51;71.03;100316.81;129715;1261;114845;-63
2024/01/25 08:42:39;;;;;;;8.70;2.00;;;;;;;7.58;70.61;100314.98;130019;1267;114888;-63
2024/01/25 08:45:41;;;;;;;11.80;2.20;;;;;;;7.62;70.50;100314.45;129867;1263;128313;-63
2024/01/25 08:48:43;;;;;;;7.80;1.90;;;;;;;7.67;70.44;100316.60;129857;1267;114645;-63
2024/01/25 08:51:45;;;;;;;8.80;2.20;;;;;;;7.72;70.41;100318.36;130039;1267;115185;-63
2024/01/25 08:54:47;;;;;;;11.10;1.90;;;;;;;7.78;70.34;100322.75;129847;1259;115052;-63
2024/01/25 08:57:50;;;;;;;9.50;2.70;;;;;;;7.87;70.51;100325.80;129988;1257;114750;-63
2024/01/25 09:00:52;;;;;;;11.90;2.10;;;;;;;7.97;70.46;100326.70;130016;1259;115148;-62
2024/01/25 09:03:55;;;;;;;9.40;2.00;;;;;;;8.04;70.11;100329.77;129887;1254;114680;-63
2024/01/25 09:06:57;;;;;;;8.90;1.80;;;;;;;8.11;70.04;100344.64;129643;1274;128750;-64
2024/01/25 09:09:59;;;;;;;6.50;1.70;;;;;;;8.17;69.83;100345.98;129930;1277;114785;-64
2024/01/25 09:13:01;;;;;;;13.40;2.80;;;;;;;8.23;69.54;100347.02;129913;1257;114760;-63
2024/01/25 09:16:04;;;;;;;8.60;2.20;;;;;;;8.27;69.35;100351.48;129638;1268;114930;-64
2024/01/25 09:19:06;;;;;;;11.10;2.40;;;;;;;8.31;69.27;100355.06;129897;1255;114799;-64
2024/01/25 09:22:09;;;;;;;10.10;3.30;;;;;;;8.40;69.06;100355.27;129916;1277;114791;-63
2024/01/25 09:25:15;;;;;;;6.80;1.80;;;;;;;8.46;68.87;100361.08;129697;1261;114975;-63
2024/01/25 09:28:17;;;;;;;10.10;3.00;;;;;;;8.50;68.68;100366.65;129895;1271;128703;-64
2024/01/25 09:31:19;;;;;;;7.90;1.80;;;;;;;8.54;68.83;100374.86;129837;1258;115279;-63
2024/01/25 09:34:21;;;;;;;8.30;1.50;;;;;;;8.57;68.62;100364.41;130002;1267;114708;-63
2024/01/25 09:37:24;;;;;;;11.20;1.50;;;;;;;8.61;68.16;100368.15;129873;1253;114847;-64
2024/01/25 09:40:26;;;;;;;8.70;1.70;;;;;;;8.67;68.08;100369.00;129961;1268;114674;-63
2024/01/25 09:43:29;;;;;;;8.60;1.80;;;;;;;8.74;67.87;100365.14;129611;1273;114777;-63
2024/01/25 09:46:31;;;;;;;7.60;1.90;;;;;;;8.82;67.94;100366.08;129892;1254;115331;-64
2024/01/25 09:49:33;;;;;;;9.10;1.80;;;;;;;8.90;67.65;100367.34;129508;1260;128419;-63
2024/01/25 09:52:35;;;;;;;9.40;1.80;;;;;;;8.97;67.54;100359.76;130093;1257;114753;-64
2024/01/25 09:55:40;;;;;;;7.90;1.50;;;;;;;9.05;67.43;100362.07;129901;1258;115662;-64
2024/01/25 09:58:45;;;;;;;9.00;2.50;;;;;;;9.11;67.16;100371.09;129621;1260;115388;-64
2024/01/25 10:01:48;;;;;;;;;;;;;;;9.16;66.92;100368.91;129848;1266;114823;-64
2024/01/25 10:04:54;;;;;;;8.60;1.70;;;;;;;9.18;66.61;100382.40;129853;1255;114811;-63
2024/01/25 10:08:01;;;;;;;9.70;2.40;;;;;;;9.17;66.59;100389.21;129511;1278;128227;-64
2024/01/25 10:11:04;;;;;;;10.30;3.10;;;;;;;9.16;66.31;100383.39;129546;1264;114821;-64
2024/01/25 10:14:08;;;;;;;7.40;2.40;;;;;;;9.13;66.41;100382.59;129985;1260;114789;-64
2024/01/25 10:17:10;;;;;;;7.50;2.30;;;;;;;9.13;66.30;100388.66;129969;1269;114862;-64
2024/01/25 10:20:15;;;;;;;10.10;2.90;;;;;;;9.10;65.90;100390.20;129817;1258;114770;-64
2024/01/25 10:23:17;;;;;;;7.80;2.40;;;;;;;9.07;65.73;100394.61;129578;1259;127975;-64
2024/01/25 10:26:19;;;;;;;10.80;2.60;;;;;;;9.00;65.78;100399.16;129710;1258;114811;-64
2024/01/25 10:29:21;;;;;;;15.40;4.20;;;;;;;8.95;65.54;100403.48;129804;1253;115076;-65
2024/01/25 10:32:24;;;;;;;10.60;4.00;;;;;;;8.91;65.71;100400.80;129779;1267;114693;-65
2024/01/25 10:35:26;;;;;;;6.80;1.80;;;;;;;8.88;65.35;100400.90;129940;1273;114881;-65
2024/01/25 10:38:34;;;;;;;8.60;3.30;;;;;;;8.85;65.53;100407.43;129876;1273;114841;-64
2024/01/25 10:41:36;;;;;;;4.60;1.60;;;;;;;8.88;65.65;100411.41;129914;1270;127959;-64
2024/01/25 10:44:39;;;;;;;6.80;1.40;;;;;;;8.87;65.05;100410.92;129899;1272;115218;-65
2024/01/25 10:47:41;;;;;;;7.30;1.70;;;;;;;8.87;65.35;100411.80;130176;1257;115138;-65
2024/01/25 10:50:46;;;;;;;7.20;1.60;;;;;;;8.91;65.24;100410.75;129984;1258;114975;-64
2024/01/25 10:53:49;;;;;;;;;;;;;;;8.92;65.18;100407.69;129917;1263;114878;-65
2024/01/25 10:56:52;;;;;;;8.00;1.90;;;;;;;8.92;65.17;100405.04;129908;1258;114693;-65
2024/01/25 10:59:54;;;;;;;10.70;2.80;;;;;;;8.94;64.86;100407.62;129945;1257;115261;-64
2024/01/25 11:02:57;;;;;;;6.40;1.50;;;;;;;8.95;64.92;100403.61;130018;1269;114718;-64
2024/01/25 11:06:12;;;;;;;5.70;1.70;;;;;;;8.99;64.95;100399.77;129926;1257;114791;-65
2024/01/25 11:09:19;;;;;;;8.50;1.50;;;;;;;8.99;64.72;100410.63;129968;1277;114782;-65
2024/01/25 11:12:21;;;;;;;6.30;2.00;;;;;;;8.97;64.58;100403.02;129361;1276;230662;-64
2024/01/25 11:15:30;;;;;;;8.30;1.80;;;;;;;8.98;64.12;100403.17;129842;1276;114750;-64
2024/01/25 11:18:32;;;;;;;8.70;1.70;;;;;;;8.95;64.22;100406.13;129803;1260;115357;-65
2024/01/25 11:21:45;;;;;;;11.50;3.40;;;;;;;8.95;64.14;100410.58;129835;1276;115243;-64
2024/01/25 11:24:49;;;;;;;7.60;2.30;;;;;;;8.99;64.14;100412.59;129971;1272;115297;-64
2024/01/25 11:27:51;;;;;;;9.20;2.40;;;;;;;9.02;63.92;100416.70;129808;1254;114764;-66
2024/01/25 11:30:54;;;;;;;10.70;2.30;;;;;;;9.05;64.17;100412.67;129849;1268;114789;-65
2024/01/25 11:33:59;;;;;;;10.10;3.70;;;;;;;9.11;64.24;100425.79;129871;1276;114800;-63
2024/01/25 11:37:01;;;;;;;11.30;2.90;;;;;;;9.18;64.29;100428.90;129936;1256;114772;-64
2024/01/25 11:40:05;;;;;;;9.90;3.20;;;;;;;9.20;64.11;100426.14;129842;1257;114941;-63
2024/01/25 11:43:10;;;;;;;7.90;1.70;;;;;;;9.19;64.38;100437.04;129988;1272;114921;-63
2024/01/25 11:46:13;;;;;;;12.10;3.50;;;;;;;9.16;64.15;100437.70;129828;1276;128504;-63
2024/01/25 11:49:16;;;;;;;9.80;2.10;;;;;;;9.12;64.47;100447.50;129713;1259;115240;-63
2024/01/25 11:52:19;;;;;;;13.50;4.10;;;;;;;9.09;64.64;100448.50;130020;1253;114825;-63
2024/01/25 11:55:21;;;;;;;10.90;3.20;;;;;;;9.09;64.76;100451.52;129948;1257;115131;-64
2024/01/25 11:58:24;;;;;;;6.90;2.00;;;;;;;9.08;64.53;100450.52;129864;1256;115515;-62
2024/01/25 12:01:27;;;;;;;11.30;3.90;;;;;;;9.06;64.61;100458.41;129993;1258;114788;-63
2024/01/25 12:04:29;;;;;;;12.30;3.10;;;;;;;9.08;64.75;100460.13;129773;1256;127460;-62
2024/01/25 12:07:32;;;;;;;8.60;1.90;;;;;;;9.13;64.62;100464.04;129929;1254;114738;-62
2024/01/25 12:10:35;;;;;;;9.90;3.00;;;;;;;9.17;64.63;100461.89;129978;1257;114709;-62
2024/01/25 12:13:41;;;;;;;7.90;2.10;;;;;;;9.21;64.47;100457.65;129834;1273;114746;-63
2024/01/25 12:16:43;;;;;;;7.50;2.10;;;;;;;9.21;63.79;100456.75;129896;1276;114724;-63
2024/01/25 12:19:46;;;;;;;11.80;2.10;;;;;;;9.22;63.78;100458.12;129853;1264;114689;-62
2024/01/25 12:22:48;;;;;;;7.80;2.00;;;;;;;9.24;63.53;100454.48;129715;1273;114724;-63
2024/01/25 12:25:51;;;;;;;7.30;2.20;;;;;;;9.21;63.14;100449.08;130893;1256;114797;-65
2024/01/25 12:28:53;;;;;;;7.50;1.70;;;;;;;9.18;63.14;100452.78;129780;1258;114789;-63
2024/01/25 12:31:54;;;;;;;8.90;1.90;;;;;;;9.15;63.01;100451.30;129923;1277;115262;-63
2024/01/25 12:34:59;;;;;;;7.20;2.10;;;;;;;9.11;62.73;100453.05;129961;1256;114783;-63
2024/01/25 12:38:01;;;;;;;14.00;2.00;;;;;;;9.10;62.52;100458.27;129744;1264;114719;-63
2024/01/25 12:41:04;;;;;;;7.00;2.40;;;;;;;9.10;62.78;100458.24;130029;1257;114755;-62
2024/01/25 12:44:06;;;;;;;9.60;2.00;;;;;;;9.15;62.65;100461.79;129971;1274;114718;-63
2024/01/25 12:47:09;;;;;;;10.20;2.20;;;;;;;9.21;62.70;100469.23;129813;1275;115772;-63
2024/01/25 12:50:11;;;;;;;6.90;1.50;;;;;;;9.25;62.13;100464.97;129651;1258;114790;-63
2024/01/25 12:53:14;;;;;;;7.80;1.30;;;;;;;9.28;62.11;100468.23;129909;1257;114883;-63
2024/01/25 12:56:16;;;;;;;5.80;1.40;;;;;;;9.30;61.93;100473.30;129911;1254;114719;-63
2024/01/25 12:59:18;;;;;;;11.40;1.70;;;;;;;9.32;61.90;100478.58;129948;1257;114703;-63
2024/01/25 13:02:20;;;;;;;7.40;1.60;;;;;;;9.31;61.33;100470.77;129484;1277;128961;-64
2024/01/25 13:05:22;;;;;;;6.90;1.10;;;;;;;9.29;61.26;100477.27;129688;1277;114741;-63
2024/01/25 13:08:24;;;;;;;6.00;1.30;;;;;;;9.27;61.25;100474.66;129983;1273;114884;-63
2024/01/25 13:11:27;;;;;;;9.30;1.20;;;;;;;9.25;61.13;100479.04;129921;1257;114811;-63
2024/01/25 13:14:29;;;;;;;9.20;1.90;;;;;;;9.22;61.00;100479.16;129980;1257;115389;-63
2024/01/25 13:17:31;;;;;;;7.50;1.90;;;;;;;9.20;61.09;100491.70;129896;1273;115073;-62
2024/01/25 13:20:33;;;;;;;7.30;1.40;;;;;;;9.21;61.15;100490.95;129651;1253;114703;-63
2024/01/25 13:23:35;;;;;;;6.90;1.70;;;;;;;9.21;61.25;100492.38;129868;1254;114744;-63
2024/01/25 13:26:37;;;;;;;7.70;1.40;;;;;;;9.22;61.00;100492.70;129917;1258;114709;-64
2024/01/25 13:29:39;;;;;;;10.10;2.30;;;;;;;9.18;60.56;100511.92;129914;1277;115334;-63
2024/01/25 13:32:41;;;;;;;9.20;1.80;;;;;;;9.16;60.57;100507.74;129886;1277;114700;-62
2024/01/25 13:35:43;;;;;;;6.00;1.80;;;;;;;9.10;60.23;100511.00;130015;1277;114785;-63
2024/01/25 13:38:46;;;;;;;6.50;2.30;;;;;;;9.06;60.45;100517.77;129920;1253;114753;-63
2024/01/25 13:41:48;;;;;;;5.90;1.40;;;;;;;9.04;60.63;100514.80;129911;1257;115291;-65
2024/01/25 13:44:50;;;;;;;8.30;1.80;;;;;;;9.01;60.31;100512.60;129959;1257;114709;-63
2024/01/25 13:47:52;;;;;;;6.00;1.90;;;;;;;8.94;60.09;100520.53;129980;1257;114760;-64
2024/01/25 13:50:55;;;;;;;5.90;1.90;;;;;;;8.90;60.49;100527.48;129920;1277;114785;-64
2024/01/25 13:53:57;;;;;;;9.00;1.70;;;;;;;8.86;60.27;100523.89;129888;1277;115241;-64
2024/01/25 13:57:00;;;;;;;8.20;1.90;;;;;;;8.82;60.40;100522.27;129927;1257;114767;-64
2024/01/25 14:00:04;;;;;;;5.50;1.50;;;;;;;8.77;60.24;100522.10;129667;1269;114770;-64